createdAt,value
2018-06-11T00:02:19.837Z,16.99
2018-06-11T00:04:49.209Z,16.86
2018-06-11T00:07:18.247Z,16.74
2018-06-11T00:09:47.255Z,16.57
2018-06-11T00:12:16.307Z,16.38
2018-06-11T00:14:45.513Z,16.31
2018-06-11T00:17:14.540Z,16.27
2018-06-11T00:19:43.590Z,16.36
2018-06-11T00:22:12.611Z,16.20
2018-06-11T00:24:47.079Z,16.36
2018-06-11T00:27:16.167Z,16.45
2018-06-11T00:29:45.259Z,16.45
2018-06-11T00:32:14.289Z,16.46
2018-06-11T00:34:43.353Z,16.33
2018-06-11T00:37:12.363Z,16.29
2018-06-11T00:39:41.391Z,16.26
2018-06-11T00:42:10.419Z,16.27
2018-06-11T00:44:39.409Z,16.34
2018-06-11T00:47:08.422Z,16.27
2018-06-11T00:49:37.416Z,16.32
2018-06-11T00:52:06.443Z,16.37
2018-06-11T00:54:35.573Z,16.40
2018-06-11T00:57:04.690Z,16.36
2018-06-11T00:59:33.949Z,16.32
2018-06-11T01:02:03.017Z,16.21
2018-06-11T01:04:32.079Z,16.30
2018-06-11T01:07:01.109Z,16.33
2018-06-11T01:09:30.143Z,16.22
2018-06-11T01:11:59.131Z,16.18
2018-06-11T01:14:28.181Z,16.14
2018-06-11T01:16:57.263Z,16.15
2018-06-11T01:19:26.324Z,16.25
2018-06-11T01:21:55.410Z,16.34
2018-06-11T01:24:24.401Z,16.17
2018-06-11T01:26:53.436Z,16.49
2018-06-11T01:29:22.432Z,16.49
2018-06-11T01:31:51.478Z,16.48
2018-06-11T01:34:20.489Z,16.24
2018-06-11T01:36:49.527Z,16.26
2018-06-11T01:39:18.528Z,16.38
2018-06-11T01:41:47.708Z,16.37
2018-06-11T01:44:16.716Z,16.21
2018-06-11T01:46:45.717Z,16.32
2018-06-11T01:49:14.742Z,16.24
2018-06-11T01:51:43.759Z,16.17
2018-06-11T01:54:12.792Z,16.03
2018-06-11T01:56:41.863Z,16.20
2018-06-11T01:59:10.948Z,16.26
2018-06-11T02:01:39.936Z,16.31
2018-06-11T02:04:08.916Z,16.38
2018-06-11T02:06:38.036Z,16.41
2018-06-11T02:09:08.279Z,16.42
2018-06-11T02:11:37.298Z,16.31
2018-06-11T02:14:06.389Z,16.27
2018-06-11T02:16:35.400Z,16.29
2018-06-11T02:19:04.436Z,16.07
2018-06-11T02:21:33.456Z,15.96
2018-06-11T02:24:02.500Z,16.17
2018-06-11T02:26:31.504Z,16.10
2018-06-11T02:29:02.166Z,16.14
2018-06-11T02:31:32.948Z,16.12
2018-06-11T02:34:02.352Z,16.10
2018-06-11T02:36:31.388Z,16.28
2018-06-11T02:39:00.457Z,16.18
2018-06-11T02:41:29.538Z,16.13
2018-06-11T02:43:58.865Z,15.89
2018-06-11T02:46:29.408Z,16.06
2018-06-11T02:48:58.488Z,16.10
2018-06-11T02:51:27.553Z,15.88
2018-06-11T02:53:57.130Z,15.89
2018-06-11T02:56:26.197Z,15.95
2018-06-11T02:58:55.179Z,15.87
2018-06-11T03:01:24.310Z,15.85
2018-06-11T03:03:53.350Z,15.67
2018-06-11T03:06:22.417Z,15.76
2018-06-11T03:08:51.923Z,15.83
2018-06-11T03:11:21.972Z,15.87
2018-06-11T03:13:51.146Z,15.82
2018-06-11T03:16:20.312Z,15.80
2018-06-11T03:18:49.708Z,15.67
2018-06-11T03:21:19.648Z,15.62
2018-06-11T03:23:50.337Z,15.75
2018-06-11T03:26:19.404Z,15.74
2018-06-11T03:28:48.456Z,15.85
2018-06-11T03:31:18.086Z,15.81
2018-06-11T03:33:47.137Z,15.83
2018-06-11T03:36:16.200Z,15.77
2018-06-11T03:38:46.100Z,15.64
2018-06-11T03:41:15.234Z,15.68
2018-06-11T03:43:44.311Z,15.71
2018-06-11T03:46:13.402Z,15.69
2018-06-11T03:48:42.471Z,15.74
2018-06-11T03:51:12.416Z,15.73
2018-06-11T03:53:41.556Z,15.82
2018-06-11T03:56:11.501Z,15.64
2018-06-11T03:58:42.171Z,15.57
2018-06-11T04:01:11.326Z,15.35
2018-06-11T04:03:40.864Z,15.51
2018-06-11T04:06:10.089Z,15.69
2018-06-11T04:08:39.330Z,15.70
2018-06-11T04:11:08.489Z,15.75
2018-06-11T04:13:37.680Z,15.71
2018-06-11T04:16:06.962Z,15.63
2018-06-11T04:18:36.222Z,15.58
2018-06-11T04:21:05.332Z,15.51
2018-06-11T04:23:34.390Z,15.53
2018-06-11T04:26:04.084Z,15.63
2018-06-11T04:28:33.225Z,15.68
2018-06-11T04:31:02.438Z,15.65
2018-06-11T04:33:31.694Z,15.59
2018-06-11T04:36:01.033Z,15.60
2018-06-11T04:38:30.143Z,15.67
2018-06-11T04:40:59.881Z,15.66
2018-06-11T04:43:28.921Z,15.58
2018-06-11T04:45:59.504Z,15.61
2018-06-11T04:48:28.589Z,15.55
2018-06-11T04:50:57.687Z,15.49
2018-06-11T04:53:26.864Z,15.46
2018-06-11T04:55:56.023Z,15.52
2018-06-11T04:58:25.692Z,15.47
2018-06-11T05:00:55.427Z,15.60
2018-06-11T05:03:25.167Z,15.64
2018-06-11T05:05:55.558Z,15.66
2018-06-11T05:08:24.802Z,15.72
2018-06-11T05:10:54.046Z,15.69
2018-06-11T05:13:24.721Z,15.70
2018-06-11T05:15:53.801Z,15.70
2018-06-11T05:18:22.958Z,15.75
2018-06-11T05:20:52.470Z,15.86
2018-06-11T05:23:21.620Z,15.83
2018-06-11T05:25:50.797Z,15.89
2018-06-11T05:28:21.538Z,15.91
2018-06-11T05:30:50.608Z,15.85
2018-06-11T05:33:20.769Z,15.86
2018-06-11T05:35:50.133Z,15.64
2018-06-11T05:38:19.344Z,15.81
2018-06-11T05:40:49.166Z,15.93
2018-06-11T05:43:18.300Z,16.00
2018-06-11T05:45:48.134Z,16.02
2018-06-11T05:48:17.318Z,15.98
2018-06-11T05:50:46.421Z,15.94
2018-06-11T05:53:16.686Z,15.97
2018-06-11T05:55:45.886Z,16.08
2018-06-11T05:58:14.996Z,16.21
2018-06-11T06:00:44.241Z,16.24
2018-06-11T06:03:13.328Z,16.27
2018-06-11T06:05:42.684Z,16.26
2018-06-11T06:08:11.970Z,16.28
2018-06-11T06:10:41.593Z,16.26
2018-06-11T06:13:10.640Z,16.28
2018-06-11T06:15:39.940Z,16.28
2018-06-11T06:20:37.310Z,16.36
2018-06-11T06:23:06.605Z,16.34
2018-06-11T06:25:35.664Z,16.38
2018-06-11T06:28:05.091Z,16.37
2018-06-11T06:30:34.212Z,16.43
2018-06-11T06:33:03.285Z,16.46
2018-06-11T06:35:32.325Z,16.62
2018-06-11T06:38:01.613Z,16.70
2018-06-11T06:40:30.683Z,17.04
2018-06-11T06:42:59.685Z,17.46
2018-06-11T06:45:28.738Z,17.78
2018-06-11T06:47:57.869Z,17.97
2018-06-11T06:50:27.233Z,18.12
2018-06-11T06:52:56.282Z,18.14
2018-06-11T06:55:25.377Z,18.46
2018-06-11T06:57:54.466Z,18.54
2018-06-11T07:00:23.569Z,18.53
2018-06-11T07:05:26.403Z,18.69
2018-06-11T07:07:55.517Z,18.91
2018-06-11T07:10:24.579Z,18.78
2018-06-11T07:12:53.734Z,18.73
2018-06-11T07:15:23.498Z,19.00
2018-06-11T07:17:52.598Z,18.97
2018-06-11T07:20:21.823Z,18.88
2018-06-11T07:32:31.030Z,19.11
2018-06-11T07:35:00.140Z,19.17
2018-06-11T07:37:29.147Z,19.30
2018-06-11T07:39:58.217Z,19.33
2018-06-11T07:42:27.249Z,19.53
2018-06-11T07:44:57.198Z,19.73
2018-06-11T07:47:26.362Z,19.62
2018-06-11T07:49:55.401Z,19.69
2018-06-11T07:52:24.451Z,19.60
2018-06-11T07:54:53.509Z,19.37
2018-06-11T07:57:22.532Z,19.56
2018-06-11T07:59:51.877Z,19.86
2018-06-11T08:02:20.892Z,19.91
2018-06-11T08:04:49.929Z,19.79
2018-06-11T08:07:18.954Z,19.70
2018-06-11T08:09:48.117Z,19.76
2018-06-11T08:12:17.135Z,19.95
2018-06-11T08:14:46.387Z,20.12
2018-06-11T08:17:15.403Z,20.09
2018-06-11T08:19:44.923Z,19.88
2018-06-11T08:22:13.996Z,19.50
2018-06-11T08:24:43.301Z,19.62
2018-06-11T08:27:12.414Z,19.76
2018-06-11T08:29:41.792Z,19.80
2018-06-11T08:32:10.887Z,20.00
2018-06-11T08:34:39.937Z,20.07
2018-06-11T08:37:09.009Z,20.17
2018-06-11T08:39:38.812Z,20.17
2018-06-11T08:42:07.859Z,20.13
2018-06-11T08:44:37.041Z,19.93
2018-06-11T08:47:06.081Z,19.79
2018-06-11T08:49:35.117Z,19.92
2018-06-11T08:52:04.505Z,19.89
2018-06-11T08:54:33.521Z,19.78
2018-06-11T08:57:02.798Z,19.57
2018-06-11T08:59:32.233Z,19.65
2018-06-11T09:02:01.264Z,19.59
2018-06-11T09:04:30.308Z,19.29
2018-06-11T09:06:59.926Z,19.34
2018-06-11T09:09:28.937Z,19.38
2018-06-11T09:11:58.036Z,19.41
2018-06-11T09:14:27.070Z,19.42
2018-06-11T09:29:56.220Z,19.78
2018-06-11T09:32:25.511Z,19.84
2018-06-11T09:34:54.587Z,19.88
2018-06-11T09:37:23.669Z,19.88
2018-06-11T09:39:52.743Z,19.87
2018-06-11T09:42:21.784Z,19.93
2018-06-11T09:57:50.866Z,20.01
2018-06-11T10:00:37.059Z,20.07
2018-06-11T10:03:06.420Z,20.03
2018-06-11T10:05:35.464Z,20.11
2018-06-11T10:08:04.494Z,20.15
2018-06-11T10:10:33.540Z,20.16
2018-06-11T10:13:02.577Z,20.18
2018-06-11T10:15:31.630Z,20.19
2018-06-11T10:18:01.002Z,20.18
2018-06-11T10:20:30.040Z,20.21
2018-06-11T10:22:59.081Z,20.25
2018-06-11T10:25:28.096Z,20.21
2018-06-11T10:27:57.133Z,20.21
2018-06-11T10:30:26.244Z,20.30
2018-06-11T10:32:55.484Z,20.36
2018-06-11T10:35:24.510Z,20.34
2018-06-11T10:37:53.662Z,20.39
2018-06-11T10:40:22.772Z,20.23
2018-06-11T10:42:51.836Z,20.35
2018-06-11T10:45:20.924Z,20.46
2018-06-11T10:47:49.945Z,20.53
2018-06-11T10:50:19.021Z,20.52
2018-06-11T10:52:48.030Z,20.60
2018-06-11T10:55:17.061Z,20.58
2018-06-11T10:57:46.089Z,20.60
2018-06-11T11:00:15.099Z,20.67
2018-06-11T11:02:44.441Z,20.65
2018-06-11T11:05:13.480Z,20.62
2018-06-11T11:07:42.558Z,20.69
2018-06-11T11:10:11.567Z,20.66
2018-06-11T11:12:40.625Z,20.69
2018-06-11T11:15:09.664Z,20.65
2018-06-11T11:17:38.714Z,20.68
2018-06-11T11:20:07.848Z,20.73
2018-06-11T11:22:36.914Z,20.74
2018-06-11T11:25:05.932Z,20.83
2018-06-11T11:27:35.120Z,20.92
2018-06-11T11:30:05.159Z,20.86
2018-06-11T11:32:34.280Z,20.91
2018-06-11T11:35:03.413Z,20.90
2018-06-11T11:37:32.416Z,20.87
2018-06-11T11:40:01.515Z,20.77
2018-06-11T11:42:30.772Z,20.92
2018-06-11T11:44:59.816Z,21.03
2018-06-11T11:47:28.870Z,21.11
2018-06-11T11:49:58.228Z,21.17
2018-06-11T11:52:27.250Z,21.22
2018-06-11T11:54:56.772Z,21.22
2018-06-11T11:57:26.574Z,21.13
2018-06-11T11:59:55.582Z,21.23
2018-06-11T12:02:24.631Z,21.19
2018-06-11T12:04:53.641Z,21.22
2018-06-11T12:07:22.964Z,21.24
2018-06-11T12:09:57.867Z,21.20
2018-06-11T12:12:32.565Z,21.30
2018-06-11T12:15:01.590Z,21.38
2018-06-11T12:17:36.152Z,21.42
2018-06-11T12:20:05.212Z,21.38
2018-06-11T12:22:34.222Z,21.42
2018-06-11T12:25:04.154Z,21.37
2018-06-11T12:27:33.171Z,21.43
2018-06-11T12:30:02.165Z,21.37
2018-06-11T12:32:31.188Z,21.33
2018-06-11T12:35:00.209Z,21.44
2018-06-11T12:37:29.274Z,21.44
2018-06-11T12:39:58.300Z,21.36
2018-06-11T12:42:32.908Z,21.48
2018-06-11T12:45:01.921Z,21.56
2018-06-11T12:47:31.036Z,21.41
2018-06-11T12:50:00.052Z,21.46
2018-06-11T12:52:29.065Z,21.46
2018-06-11T12:54:58.128Z,21.45
2018-06-11T12:57:27.142Z,21.52
2018-06-11T12:59:56.213Z,21.51
2018-06-11T13:02:25.249Z,21.53
2018-06-11T13:04:54.541Z,21.64
2018-06-11T13:07:23.589Z,21.64
2018-06-11T13:09:52.629Z,21.60
2018-06-11T13:12:21.665Z,21.71
2018-06-11T13:14:50.705Z,21.77
2018-06-11T13:17:25.401Z,21.83
2018-06-11T13:19:55.076Z,21.79
2018-06-11T13:22:24.107Z,21.81
2018-06-11T13:24:53.143Z,21.93
2018-06-11T13:27:22.181Z,21.90
2018-06-11T13:29:51.229Z,22.02
2018-06-11T13:32:20.292Z,21.76
2018-06-11T13:34:49.369Z,21.92
2018-06-11T13:37:18.409Z,21.86
2018-06-11T13:39:47.457Z,22.07
2018-06-11T13:42:16.495Z,21.85
2018-06-11T13:44:45.566Z,21.76
2018-06-11T13:47:14.618Z,21.81
2018-06-11T13:49:43.652Z,21.82
2018-06-11T13:52:12.668Z,21.83
2018-06-11T13:54:41.697Z,21.82
2018-06-11T13:57:10.753Z,21.89
2018-06-11T13:59:39.939Z,21.82
2018-06-11T14:02:08.965Z,21.79
2018-06-11T14:04:38.018Z,21.87
2018-06-11T14:07:08.007Z,21.93
2018-06-11T14:09:37.004Z,21.84
2018-06-11T14:12:06.101Z,21.68
2018-06-11T14:14:35.133Z,21.90
2018-06-11T14:17:09.713Z,21.90
2018-06-11T14:19:38.781Z,21.82
2018-06-11T14:22:07.813Z,21.85
2018-06-11T14:24:36.867Z,21.97
2018-06-11T14:27:05.913Z,21.86
2018-06-11T14:29:35.045Z,21.78
2018-06-11T14:32:04.146Z,21.84
2018-06-11T14:34:33.283Z,21.82
2018-06-11T14:37:02.337Z,21.85
2018-06-11T14:39:31.864Z,21.84
2018-06-11T14:42:00.910Z,21.89
2018-06-11T14:44:29.956Z,21.90
2018-06-11T14:46:59.011Z,21.95
2018-06-11T14:49:28.035Z,21.96
2018-06-11T14:51:57.056Z,22.08
2018-06-11T14:54:26.123Z,22.19
2018-06-11T14:56:55.248Z,22.21
2018-06-11T14:59:24.354Z,22.14
2018-06-11T15:01:53.671Z,22.14
2018-06-11T15:04:22.697Z,22.09
2018-06-11T15:06:51.737Z,22.10
2018-06-11T15:09:20.927Z,22.17
2018-06-11T15:11:49.974Z,22.20
2018-06-11T15:14:19.478Z,22.23
2018-06-11T15:16:48.537Z,22.21
2018-06-11T15:19:17.600Z,22.24
2018-06-11T15:21:46.639Z,22.17
2018-06-11T15:24:15.709Z,22.16
2018-06-11T15:26:44.821Z,22.10
2018-06-11T15:29:13.903Z,22.12
2018-06-11T15:31:42.918Z,22.14
2018-06-11T15:34:11.952Z,22.12
2018-06-11T15:36:41.035Z,22.16
2018-06-11T15:39:10.070Z,22.28
2018-06-11T15:41:39.163Z,22.29
2018-06-11T15:44:08.241Z,22.22
2018-06-11T15:46:37.741Z,22.23
2018-06-11T15:49:06.793Z,22.19
2018-06-11T15:51:35.901Z,22.19
2018-06-11T15:54:04.983Z,22.26
2018-06-11T15:56:34.036Z,22.29
2018-06-11T15:59:03.340Z,22.28
2018-06-11T16:01:32.397Z,22.28
2018-06-11T16:04:01.476Z,22.23
2018-06-11T16:06:30.501Z,22.27
2018-06-11T16:08:59.830Z,22.24
2018-06-11T16:11:28.863Z,22.20
2018-06-11T16:13:57.928Z,22.14
2018-06-11T16:16:26.956Z,22.13
2018-06-11T16:18:56.048Z,22.18
2018-06-11T16:21:25.324Z,22.24
2018-06-11T16:23:54.638Z,22.19
2018-06-11T16:26:23.687Z,22.16
2018-06-11T16:28:52.812Z,22.21
2018-06-11T16:31:21.853Z,22.21
2018-06-11T16:33:50.968Z,22.27
2018-06-11T16:36:20.640Z,22.17
2018-06-11T16:38:49.703Z,22.12
2018-06-11T16:41:18.752Z,22.13
2018-06-11T16:43:48.088Z,22.19
2018-06-11T16:46:17.447Z,22.26
2018-06-11T16:48:47.171Z,22.22
2018-06-11T16:51:21.818Z,22.23
2018-06-11T16:53:51.000Z,22.23
2018-06-11T16:56:20.117Z,22.30
2018-06-11T16:58:49.292Z,22.23
2018-06-11T17:01:20.090Z,22.18
2018-06-11T17:03:49.318Z,22.08
2018-06-11T17:06:18.949Z,22.10
2018-06-11T17:08:48.145Z,22.10
2018-06-11T17:11:17.414Z,21.99
2018-06-11T17:13:46.452Z,22.04
2018-06-11T17:16:15.525Z,22.11
2018-06-11T17:18:44.611Z,22.06
2018-06-11T17:21:13.697Z,22.12
2018-06-11T17:23:42.796Z,22.08
2018-06-11T17:26:11.918Z,22.01
2018-06-11T17:28:41.172Z,22.03
2018-06-11T17:31:10.782Z,22.04
2018-06-11T17:33:39.836Z,21.88
2018-06-11T17:36:09.059Z,21.75
2018-06-11T17:38:43.839Z,21.68
2018-06-11T17:41:13.684Z,21.68
2018-06-11T17:43:43.431Z,21.74
2018-06-11T17:46:12.947Z,21.72
2018-06-11T17:48:42.002Z,21.68
2018-06-11T17:51:11.037Z,21.64
2018-06-11T17:53:40.121Z,21.58
2018-06-11T17:56:09.308Z,21.58
2018-06-11T17:58:39.782Z,21.61
2018-06-11T18:01:08.841Z,21.56
2018-06-11T18:03:37.930Z,21.55
2018-06-11T18:06:07.456Z,21.63
2018-06-11T18:08:36.593Z,21.64
2018-06-11T18:11:06.269Z,21.57
2018-06-11T18:13:35.408Z,21.51
2018-06-11T18:16:04.551Z,21.50
2018-06-11T18:18:33.653Z,21.38
2018-06-11T18:21:02.661Z,21.37
2018-06-11T18:23:31.817Z,21.45
2018-06-11T18:26:00.867Z,21.47
2018-06-11T18:28:30.758Z,21.48
2018-06-11T18:30:59.792Z,21.46
2018-06-11T18:33:28.857Z,21.43
2018-06-11T18:35:58.279Z,21.28
2018-06-11T18:38:27.491Z,21.29
2018-06-11T18:40:56.589Z,21.23
2018-06-11T18:43:25.718Z,21.24
2018-06-11T18:45:54.798Z,21.17
2018-06-11T18:48:24.209Z,21.16
2018-06-11T18:50:59.205Z,21.16
2018-06-11T18:53:33.720Z,21.08
2018-06-11T18:56:02.822Z,21.17
2018-06-11T18:58:32.384Z,21.16
2018-06-11T19:01:01.525Z,21.13
2018-06-11T19:03:30.771Z,21.12
2018-06-11T19:06:00.020Z,21.17
2018-06-11T19:08:30.459Z,21.09
2018-06-11T19:11:05.280Z,21.10
2018-06-11T19:13:34.502Z,21.08
2018-06-11T19:16:03.861Z,21.07
2018-06-11T19:18:32.953Z,20.95
2018-06-11T19:21:02.353Z,20.79
2018-06-11T19:23:32.169Z,20.83
2018-06-11T19:26:01.483Z,20.75
2018-06-11T19:28:30.823Z,20.71
2018-06-11T19:30:59.909Z,20.66
2018-06-11T19:33:28.969Z,20.60
2018-06-11T19:35:58.030Z,20.51
2018-06-11T19:38:27.201Z,20.51
2018-06-11T19:40:56.290Z,20.31
2018-06-11T19:43:25.409Z,20.31
2018-06-11T19:45:54.532Z,20.32
2018-06-11T19:48:23.606Z,20.31
2018-06-11T19:50:52.854Z,20.26
2018-06-11T19:53:21.857Z,20.29
2018-06-11T20:08:51.840Z,19.96
2018-06-11T20:11:26.489Z,19.95
2018-06-11T20:14:01.085Z,19.78
2018-06-11T20:16:30.155Z,19.74
2018-06-11T20:18:59.252Z,19.70
2018-06-11T20:21:28.317Z,19.75
2018-06-11T20:23:58.367Z,19.82
2018-06-11T20:26:28.033Z,19.66
2018-06-11T20:28:58.238Z,19.79
2018-06-11T20:31:27.402Z,19.74
2018-06-11T20:33:56.576Z,19.52
2018-06-11T20:36:25.642Z,19.51
2018-06-11T20:38:55.663Z,19.47
2018-06-11T20:41:24.697Z,19.19
2018-06-11T20:43:54.684Z,19.19
2018-06-11T20:46:23.784Z,19.05
2018-06-11T20:48:52.890Z,18.87
2018-06-11T20:51:21.998Z,18.96
2018-06-11T20:53:51.214Z,18.95
2018-06-11T20:56:20.294Z,18.83
2018-06-11T21:11:49.443Z,18.62
2018-06-11T21:14:18.567Z,18.53
2018-06-11T21:16:52.656Z,18.49
2018-06-11T21:19:21.716Z,18.58
2018-06-11T21:21:50.835Z,18.61
2018-06-11T21:24:20.317Z,18.60
2018-06-11T21:26:49.381Z,18.56
2018-06-11T21:29:18.504Z,18.53
2018-06-11T21:31:47.728Z,18.53
2018-06-11T21:34:16.772Z,18.37
2018-06-11T21:36:45.809Z,18.30
2018-06-11T21:39:14.840Z,18.36
2018-06-11T21:41:43.866Z,18.43
2018-06-11T21:44:13.500Z,18.43
2018-06-11T21:46:42.540Z,18.32
2018-06-11T21:49:11.674Z,18.23
2018-06-11T21:51:40.780Z,18.26
2018-06-11T21:54:09.834Z,18.25
2018-06-11T21:56:38.900Z,18.27
2018-06-11T21:59:07.996Z,18.39
2018-06-11T22:01:37.090Z,18.36
2018-06-11T22:04:07.237Z,18.38
2018-06-11T22:06:36.214Z,18.22
2018-06-11T22:09:08.747Z,18.27
2018-06-11T22:11:38.848Z,18.32
2018-06-11T22:14:07.890Z,18.30
2018-06-11T22:16:37.670Z,18.24
2018-06-11T22:19:06.808Z,18.28
2018-06-11T22:21:36.286Z,18.12
2018-06-11T22:24:05.429Z,17.98
2018-06-11T22:26:34.514Z,17.94
2018-06-11T22:29:03.543Z,18.05
2018-06-11T22:31:32.579Z,17.97
2018-06-11T22:34:01.821Z,18.04
2018-06-11T22:36:31.563Z,18.06
2018-06-11T22:39:00.614Z,17.99
2018-06-11T22:41:29.654Z,17.90
2018-06-11T22:43:58.637Z,17.92
2018-06-11T22:59:28.576Z,17.77
2018-06-11T23:01:57.828Z,17.63
2018-06-11T23:04:26.954Z,17.81
2018-06-11T23:06:56.036Z,17.81
2018-06-11T23:09:25.082Z,17.94
2018-06-11T23:11:54.116Z,17.89
2018-06-11T23:14:23.158Z,17.76
2018-06-11T23:16:52.215Z,17.77
2018-06-11T23:19:21.251Z,17.91
2018-06-11T23:21:50.325Z,18.00
2018-06-11T23:24:19.979Z,17.73
2018-06-11T23:26:49.492Z,17.73
2018-06-11T23:29:18.539Z,17.74
2018-06-11T23:31:47.633Z,17.71
2018-06-11T23:34:16.677Z,17.69
2018-06-11T23:36:45.686Z,17.76
2018-06-11T23:39:14.886Z,17.67
2018-06-11T23:41:44.662Z,17.59
2018-06-11T23:44:13.837Z,17.64
2018-06-11T23:46:42.882Z,17.61
2018-06-11T23:49:11.948Z,17.70
2018-06-11T23:51:41.024Z,17.83
2018-06-11T23:54:10.239Z,17.83
2018-06-11T23:56:39.301Z,17.88
2018-06-11T23:59:08.421Z,17.86
